sensor_id;sensor_type;location;lat;lon;timestamp;P1;durP1;ratioP1;P2;durP2;ratioP2
76795;SDS011;65745;50.278;18.192;2024-03-02T00:00:34;79.80;;;50.90;;
76795;SDS011;65745;50.278;18.192;2024-03-02T00:03:26;74.90;;;48.90;;
76795;SDS011;65745;50.278;18.192;2024-03-02T00:05:59;75.20;;;48.20;;
76795;SDS011;65745;50.278;18.192;2024-03-02T00:08:31;73.90;;;49.00;;
76795;SDS011;65745;50.278;18.192;2024-03-02T00:11:04;77.80;;;50.00;;
76795;SDS011;65745;50.278;18.192;2024-03-02T00:13:36;73.80;;;47.60;;
76795;SDS011;65745;50.278;18.192;2024-03-02T00:16:09;78.80;;;48.50;;
76795;SDS011;65745;50.278;18.192;2024-03-02T00:18:42;86.40;;;51.30;;
76795;SDS011;65745;50.278;18.192;2024-03-02T00:21:14;80.40;;;50.20;;
76795;SDS011;65745;50.278;18.192;2024-03-02T00:23:49;78.70;;;48.00;;
76795;SDS011;65745;50.278;18.192;2024-03-02T00:26:24;66.80;;;43.20;;
76795;SDS011;65745;50.278;18.192;2024-03-02T00:28:57;76.00;;;47.20;;
76795;SDS011;65745;50.278;18.192;2024-03-02T00:31:29;82.80;;;48.10;;
76795;SDS011;65745;50.278;18.192;2024-03-02T00:34:02;77.00;;;48.70;;
76795;SDS011;65745;50.278;18.192;2024-03-02T00:36:40;74.90;;;48.70;;
76795;SDS011;65745;50.278;18.192;2024-03-02T00:39:13;81.90;;;47.50;;
76795;SDS011;65745;50.278;18.192;2024-03-02T00:41:47;77.60;;;48.10;;
76795;SDS011;65745;50.278;18.192;2024-03-02T00:44:20;77.60;;;49.60;;
76795;SDS011;65745;50.278;18.192;2024-03-02T00:46:58;75.70;;;48.10;;
76795;SDS011;65745;50.278;18.192;2024-03-02T00:49:32;78.80;;;49.20;;
76795;SDS011;65745;50.278;18.192;2024-03-02T00:52:08;76.10;;;45.80;;
76795;SDS011;65745;50.278;18.192;2024-03-02T00:54:42;75.40;;;48.30;;
76795;SDS011;65745;50.278;18.192;2024-03-02T00:57:14;73.10;;;46.30;;
76795;SDS011;65745;50.278;18.192;2024-03-02T00:59:47;78.60;;;47.60;;
76795;SDS011;65745;50.278;18.192;2024-03-02T01:02:19;76.60;;;46.20;;
76795;SDS011;65745;50.278;18.192;2024-03-02T01:04:52;76.80;;;47.90;;
76795;SDS011;65745;50.278;18.192;2024-03-02T01:07:24;68.40;;;45.40;;
76795;SDS011;65745;50.278;18.192;2024-03-02T01:09:56;69.00;;;43.90;;
76795;SDS011;65745;50.278;18.192;2024-03-02T01:12:29;63.50;;;44.50;;
76795;SDS011;65745;50.278;18.192;2024-03-02T01:15:01;68.50;;;43.30;;
76795;SDS011;65745;50.278;18.192;2024-03-02T01:17:37;68.80;;;44.20;;
76795;SDS011;65745;50.278;18.192;2024-03-02T01:20:10;68.80;;;44.10;;
76795;SDS011;65745;50.278;18.192;2024-03-02T01:22:43;66.70;;;41.20;;
76795;SDS011;65745;50.278;18.192;2024-03-02T01:25:16;70.20;;;44.50;;
76795;SDS011;65745;50.278;18.192;2024-03-02T01:27:48;72.10;;;45.60;;
76795;SDS011;65745;50.278;18.192;2024-03-02T01:30:21;71.90;;;43.90;;
76795;SDS011;65745;50.278;18.192;2024-03-02T01:32:54;68.10;;;44.30;;
76795;SDS011;65745;50.278;18.192;2024-03-02T01:35:28;65.80;;;43.70;;
76795;SDS011;65745;50.278;18.192;2024-03-02T01:38:00;69.30;;;43.10;;
76795;SDS011;65745;50.278;18.192;2024-03-02T01:40:33;66.20;;;43.60;;
76795;SDS011;65745;50.278;18.192;2024-03-02T01:43:06;68.50;;;44.80;;
76795;SDS011;65745;50.278;18.192;2024-03-02T01:45:38;68.60;;;44.60;;
76795;SDS011;65745;50.278;18.192;2024-03-02T01:48:10;68.60;;;44.40;;
76795;SDS011;65745;50.278;18.192;2024-03-02T01:50:43;67.40;;;42.90;;
76795;SDS011;65745;50.278;18.192;2024-03-02T01:53:15;67.30;;;43.30;;
76795;SDS011;65745;50.278;18.192;2024-03-02T01:55:48;68.30;;;44.10;;
76795;SDS011;65745;50.278;18.192;2024-03-02T01:58:20;63.20;;;41.80;;
76795;SDS011;65745;50.278;18.192;2024-03-02T02:00:53;72.50;;;46.80;;
76795;SDS011;65745;50.278;18.192;2024-03-02T02:03:25;68.80;;;43.20;;
76795;SDS011;65745;50.278;18.192;2024-03-02T02:05:57;68.70;;;41.40;;
76795;SDS011;65745;50.278;18.192;2024-03-02T02:08:30;66.90;;;43.00;;
76795;SDS011;65745;50.278;18.192;2024-03-02T02:11:02;65.80;;;41.80;;
76795;SDS011;65745;50.278;18.192;2024-03-02T02:13:35;65.60;;;40.20;;
76795;SDS011;65745;50.278;18.192;2024-03-02T02:16:08;72.60;;;46.20;;
76795;SDS011;65745;50.278;18.192;2024-03-02T02:18:40;66.80;;;42.40;;
76795;SDS011;65745;50.278;18.192;2024-03-02T02:21:13;65.20;;;42.00;;
76795;SDS011;65745;50.278;18.192;2024-03-02T02:23:45;66.00;;;41.60;;
76795;SDS011;65745;50.278;18.192;2024-03-02T02:26:17;58.80;;;39.50;;
76795;SDS011;65745;50.278;18.192;2024-03-02T02:28:50;67.60;;;43.60;;
76795;SDS011;65745;50.278;18.192;2024-03-02T02:31:22;63.00;;;42.70;;
76795;SDS011;65745;50.278;18.192;2024-03-02T02:33:54;66.40;;;42.10;;
76795;SDS011;65745;50.278;18.192;2024-03-02T02:36:27;68.30;;;43.30;;
76795;SDS011;65745;50.278;18.192;2024-03-02T02:38:59;75.00;;;46.30;;
76795;SDS011;65745;50.278;18.192;2024-03-02T02:41:36;68.90;;;46.50;;
76795;SDS011;65745;50.278;18.192;2024-03-02T02:44:08;78.70;;;51.60;;
76795;SDS011;65745;50.278;18.192;2024-03-02T02:46:42;77.60;;;50.40;;
76795;SDS011;65745;50.278;18.192;2024-03-02T02:49:14;77.60;;;51.90;;
76795;SDS011;65745;50.278;18.192;2024-03-02T02:51:46;66.00;;;45.40;;
76795;SDS011;65745;50.278;18.192;2024-03-02T02:54:19;75.50;;;46.40;;
76795;SDS011;65745;50.278;18.192;2024-03-02T02:56:51;67.10;;;40.90;;
76795;SDS011;65745;50.278;18.192;2024-03-02T02:59:23;72.80;;;41.90;;
76795;SDS011;65745;50.278;18.192;2024-03-02T03:01:56;66.50;;;44.20;;
76795;SDS011;65745;50.278;18.192;2024-03-02T03:04:28;70.70;;;44.70;;
76795;SDS011;65745;50.278;18.192;2024-03-02T03:07:00;70.80;;;47.70;;
76795;SDS011;65745;50.278;18.192;2024-03-02T03:09:33;71.40;;;47.90;;
76795;SDS011;65745;50.278;18.192;2024-03-02T03:12:08;75.50;;;48.50;;
76795;SDS011;65745;50.278;18.192;2024-03-02T03:14:41;70.10;;;46.10;;
76795;SDS011;65745;50.278;18.192;2024-03-02T03:17:14;71.30;;;46.20;;
76795;SDS011;65745;50.278;18.192;2024-03-02T03:19:47;68.90;;;43.90;;
76795;SDS011;65745;50.278;18.192;2024-03-02T03:22:19;74.40;;;45.00;;
76795;SDS011;65745;50.278;18.192;2024-03-02T03:24:51;63.90;;;40.00;;
76795;SDS011;65745;50.278;18.192;2024-03-02T03:27:24;71.10;;;45.40;;
76795;SDS011;65745;50.278;18.192;2024-03-02T03:29:57;57.10;;;36.90;;
76795;SDS011;65745;50.278;18.192;2024-03-02T03:32:29;64.10;;;41.90;;
76795;SDS011;65745;50.278;18.192;2024-03-02T03:35:01;64.40;;;41.30;;
76795;SDS011;65745;50.278;18.192;2024-03-02T03:37:35;63.50;;;40.70;;
76795;SDS011;65745;50.278;18.192;2024-03-02T03:40:08;67.00;;;44.20;;
76795;SDS011;65745;50.278;18.192;2024-03-02T03:42:41;64.70;;;40.70;;
76795;SDS011;65745;50.278;18.192;2024-03-02T03:45:14;69.80;;;44.50;;
76795;SDS011;65745;50.278;18.192;2024-03-02T03:47:46;66.00;;;43.30;;
76795;SDS011;65745;50.278;18.192;2024-03-02T03:50:18;60.80;;;40.70;;
76795;SDS011;65745;50.278;18.192;2024-03-02T03:52:51;71.20;;;44.90;;
76795;SDS011;65745;50.278;18.192;2024-03-02T03:55:23;74.10;;;44.90;;
76795;SDS011;65745;50.278;18.192;2024-03-02T03:57:55;68.00;;;42.60;;
76795;SDS011;65745;50.278;18.192;2024-03-02T04:00:28;58.50;;;38.20;;
76795;SDS011;65745;50.278;18.192;2024-03-02T04:03:00;73.00;;;45.20;;
76795;SDS011;65745;50.278;18.192;2024-03-02T04:05:33;73.90;;;44.70;;
76795;SDS011;65745;50.278;18.192;2024-03-02T04:08:05;63.70;;;41.00;;
76795;SDS011;65745;50.278;18.192;2024-03-02T04:10:38;69.70;;;44.50;;
76795;SDS011;65745;50.278;18.192;2024-03-02T04:13:11;75.30;;;45.60;;
76795;SDS011;65745;50.278;18.192;2024-03-02T04:15:43;65.10;;;44.90;;
76795;SDS011;65745;50.278;18.192;2024-03-02T04:18:16;63.90;;;41.80;;
76795;SDS011;65745;50.278;18.192;2024-03-02T04:20:48;73.60;;;45.50;;
76795;SDS011;65745;50.278;18.192;2024-03-02T04:23:22;67.30;;;41.70;;
76795;SDS011;65745;50.278;18.192;2024-03-02T04:25:55;70.40;;;43.00;;
76795;SDS011;65745;50.278;18.192;2024-03-02T04:28:27;67.00;;;42.30;;
76795;SDS011;65745;50.278;18.192;2024-03-02T04:30:59;72.30;;;44.10;;
76795;SDS011;65745;50.278;18.192;2024-03-02T04:33:31;66.90;;;41.10;;
76795;SDS011;65745;50.278;18.192;2024-03-02T04:36:04;70.50;;;44.30;;
76795;SDS011;65745;50.278;18.192;2024-03-02T04:38:38;75.00;;;45.00;;
76795;SDS011;65745;50.278;18.192;2024-03-02T04:41:11;66.70;;;43.00;;
76795;SDS011;65745;50.278;18.192;2024-03-02T04:43:43;60.20;;;41.30;;
76795;SDS011;65745;50.278;18.192;2024-03-02T04:46:15;70.80;;;43.70;;
76795;SDS011;65745;50.278;18.192;2024-03-02T04:48:47;70.10;;;43.00;;
76795;SDS011;65745;50.278;18.192;2024-03-02T04:51:25;68.30;;;44.60;;
76795;SDS011;65745;50.278;18.192;2024-03-02T04:53:57;56.50;;;38.70;;
76795;SDS011;65745;50.278;18.192;2024-03-02T04:56:29;69.20;;;40.50;;
76795;SDS011;65745;50.278;18.192;2024-03-02T04:59:19;71.50;;;44.20;;
76795;SDS011;65745;50.278;18.192;2024-03-02T05:01:51;74.20;;;44.50;;
76795;SDS011;65745;50.278;18.192;2024-03-02T05:04:24;63.60;;;41.90;;
76795;SDS011;65745;50.278;18.192;2024-03-02T05:06:56;66.50;;;43.80;;
76795;SDS011;65745;50.278;18.192;2024-03-02T05:09:28;70.50;;;45.90;;
76795;SDS011;65745;50.278;18.192;2024-03-02T05:12:01;68.20;;;43.70;;
76795;SDS011;65745;50.278;18.192;2024-03-02T05:14:52;67.60;;;43.20;;
76795;SDS011;65745;50.278;18.192;2024-03-02T05:17:25;71.30;;;46.10;;
76795;SDS011;65745;50.278;18.192;2024-03-02T05:19:57;69.30;;;43.50;;
76795;SDS011;65745;50.278;18.192;2024-03-02T05:22:30;65.50;;;42.20;;
76795;SDS011;65745;50.278;18.192;2024-03-02T05:25:03;61.90;;;40.10;;
76795;SDS011;65745;50.278;18.192;2024-03-02T05:27:39;68.20;;;42.50;;
76795;SDS011;65745;50.278;18.192;2024-03-02T05:30:12;68.90;;;44.10;;
76795;SDS011;65745;50.278;18.192;2024-03-02T05:32:45;69.50;;;44.50;;
76795;SDS011;65745;50.278;18.192;2024-03-02T05:35:17;68.80;;;43.70;;
76795;SDS011;65745;50.278;18.192;2024-03-02T05:37:49;73.00;;;44.30;;
76795;SDS011;65745;50.278;18.192;2024-03-02T05:40:22;68.00;;;44.10;;
76795;SDS011;65745;50.278;18.192;2024-03-02T05:42:54;63.20;;;39.60;;
76795;SDS011;65745;50.278;18.192;2024-03-02T05:45:26;61.60;;;40.60;;
76795;SDS011;65745;50.278;18.192;2024-03-02T05:47:59;59.80;;;39.30;;
76795;SDS011;65745;50.278;18.192;2024-03-02T05:50:31;55.70;;;38.70;;
76795;SDS011;65745;50.278;18.192;2024-03-02T05:53:03;57.80;;;38.40;;
76795;SDS011;65745;50.278;18.192;2024-03-02T05:55:36;57.50;;;40.00;;
76795;SDS011;65745;50.278;18.192;2024-03-02T05:58:09;59.30;;;39.30;;
76795;SDS011;65745;50.278;18.192;2024-03-02T06:00:55;57.60;;;39.70;;
76795;SDS011;65745;50.278;18.192;2024-03-02T06:03:27;55.60;;;39.00;;
76795;SDS011;65745;50.278;18.192;2024-03-02T06:06:00;53.60;;;37.30;;
76795;SDS011;65745;50.278;18.192;2024-03-02T06:08:32;62.20;;;41.30;;
76795;SDS011;65745;50.278;18.192;2024-03-02T06:11:05;55.70;;;38.60;;
76795;SDS011;65745;50.278;18.192;2024-03-02T06:13:38;60.50;;;40.10;;
76795;SDS011;65745;50.278;18.192;2024-03-02T06:16:10;61.90;;;42.30;;
76795;SDS011;65745;50.278;18.192;2024-03-02T06:18:42;51.90;;;34.60;;
76795;SDS011;65745;50.278;18.192;2024-03-02T06:21:15;53.60;;;36.80;;
76795;SDS011;65745;50.278;18.192;2024-03-02T06:23:48;80.90;;;49.90;;
76795;SDS011;65745;50.278;18.192;2024-03-02T06:26:20;74.80;;;47.50;;
76795;SDS011;65745;50.278;18.192;2024-03-02T06:28:54;129.90;;;76.50;;
76795;SDS011;65745;50.278;18.192;2024-03-02T06:31:26;145.80;;;79.30;;
76795;SDS011;65745;50.278;18.192;2024-03-02T06:33:59;102.80;;;59.70;;
76795;SDS011;65745;50.278;18.192;2024-03-02T06:36:33;81.10;;;52.90;;
76795;SDS011;65745;50.278;18.192;2024-03-02T06:39:06;80.00;;;50.80;;
76795;SDS011;65745;50.278;18.192;2024-03-02T06:41:39;71.80;;;47.90;;
76795;SDS011;65745;50.278;18.192;2024-03-02T06:44:12;70.70;;;47.60;;
76795;SDS011;65745;50.278;18.192;2024-03-02T06:46:44;73.10;;;48.30;;
76795;SDS011;65745;50.278;18.192;2024-03-02T06:49:16;78.60;;;51.40;;
76795;SDS011;65745;50.278;18.192;2024-03-02T06:51:49;84.10;;;53.20;;
76795;SDS011;65745;50.278;18.192;2024-03-02T06:54:21;75.60;;;50.80;;
76795;SDS011;65745;50.278;18.192;2024-03-02T06:56:53;72.10;;;47.90;;
76795;SDS011;65745;50.278;18.192;2024-03-02T06:59:26;71.60;;;50.20;;
76795;SDS011;65745;50.278;18.192;2024-03-02T07:01:58;71.40;;;47.70;;
76795;SDS011;65745;50.278;18.192;2024-03-02T07:04:31;68.20;;;46.20;;
76795;SDS011;65745;50.278;18.192;2024-03-02T07:07:03;60.70;;;43.80;;
76795;SDS011;65745;50.278;18.192;2024-03-02T07:09:35;64.00;;;44.70;;
76795;SDS011;65745;50.278;18.192;2024-03-02T07:12:08;60.40;;;42.30;;
76795;SDS011;65745;50.278;18.192;2024-03-02T07:14:41;63.50;;;45.20;;
76795;SDS011;65745;50.278;18.192;2024-03-02T07:17:31;67.30;;;46.80;;
76795;SDS011;65745;50.278;18.192;2024-03-02T07:20:05;62.50;;;45.60;;
76795;SDS011;65745;50.278;18.192;2024-03-02T07:22:38;67.70;;;48.10;;
76795;SDS011;65745;50.278;18.192;2024-03-02T07:25:13;74.00;;;50.30;;
76795;SDS011;65745;50.278;18.192;2024-03-02T07:27:48;70.30;;;48.20;;
76795;SDS011;65745;50.278;18.192;2024-03-02T07:30:22;57.50;;;39.60;;
76795;SDS011;65745;50.278;18.192;2024-03-02T07:32:54;56.20;;;39.40;;
76795;SDS011;65745;50.278;18.192;2024-03-02T07:35:27;60.80;;;39.90;;
76795;SDS011;65745;50.278;18.192;2024-03-02T07:38:01;62.30;;;43.60;;
76795;SDS011;65745;50.278;18.192;2024-03-02T07:40:33;60.00;;;43.20;;
76795;SDS011;65745;50.278;18.192;2024-03-02T07:43:06;59.60;;;42.90;;
76795;SDS011;65745;50.278;18.192;2024-03-02T07:45:38;59.10;;;42.70;;
76795;SDS011;65745;50.278;18.192;2024-03-02T07:48:11;58.80;;;41.10;;
76795;SDS011;65745;50.278;18.192;2024-03-02T07:50:43;53.10;;;38.00;;
76795;SDS011;65745;50.278;18.192;2024-03-02T07:53:15;53.80;;;37.10;;
76795;SDS011;65745;50.278;18.192;2024-03-02T07:55:48;58.30;;;40.70;;
76795;SDS011;65745;50.278;18.192;2024-03-02T07:58:20;58.60;;;40.60;;
76795;SDS011;65745;50.278;18.192;2024-03-02T08:00:52;62.50;;;42.60;;
76795;SDS011;65745;50.278;18.192;2024-03-02T08:03:25;57.70;;;38.70;;
76795;SDS011;65745;50.278;18.192;2024-03-02T08:05:57;69.40;;;44.30;;
76795;SDS011;65745;50.278;18.192;2024-03-02T08:08:30;69.10;;;46.90;;
76795;SDS011;65745;50.278;18.192;2024-03-02T08:11:03;56.20;;;38.20;;
76795;SDS011;65745;50.278;18.192;2024-03-02T08:13:35;62.80;;;41.40;;
76795;SDS011;65745;50.278;18.192;2024-03-02T08:16:08;58.60;;;41.60;;
76795;SDS011;65745;50.278;18.192;2024-03-02T08:18:40;60.90;;;41.50;;
76795;SDS011;65745;50.278;18.192;2024-03-02T08:21:13;62.80;;;42.80;;
76795;SDS011;65745;50.278;18.192;2024-03-02T08:23:46;59.50;;;42.10;;
76795;SDS011;65745;50.278;18.192;2024-03-02T08:26:19;56.70;;;40.40;;
76795;SDS011;65745;50.278;18.192;2024-03-02T08:28:51;59.40;;;41.40;;
76795;SDS011;65745;50.278;18.192;2024-03-02T08:31:24;64.50;;;43.50;;
76795;SDS011;65745;50.278;18.192;2024-03-02T08:33:56;63.60;;;42.60;;
76795;SDS011;65745;50.278;18.192;2024-03-02T08:36:29;56.80;;;40.40;;
76795;SDS011;65745;50.278;18.192;2024-03-02T08:39:02;57.90;;;40.70;;
76795;SDS011;65745;50.278;18.192;2024-03-02T08:41:36;54.40;;;38.90;;
76795;SDS011;65745;50.278;18.192;2024-03-02T08:44:09;60.30;;;41.40;;
76795;SDS011;65745;50.278;18.192;2024-03-02T08:46:42;60.60;;;43.40;;
76795;SDS011;65745;50.278;18.192;2024-03-02T08:49:14;61.60;;;42.00;;
76795;SDS011;65745;50.278;18.192;2024-03-02T08:51:47;57.90;;;40.80;;
76795;SDS011;65745;50.278;18.192;2024-03-02T08:54:24;57.70;;;41.90;;
76795;SDS011;65745;50.278;18.192;2024-03-02T08:56:57;58.30;;;43.00;;
76795;SDS011;65745;50.278;18.192;2024-03-02T08:59:30;65.90;;;45.30;;
76795;SDS011;65745;50.278;18.192;2024-03-02T09:02:02;61.90;;;43.00;;
76795;SDS011;65745;50.278;18.192;2024-03-02T09:04:35;59.20;;;42.90;;
76795;SDS011;65745;50.278;18.192;2024-03-02T09:07:07;61.00;;;43.30;;
76795;SDS011;65745;50.278;18.192;2024-03-02T09:09:39;61.70;;;43.10;;
76795;SDS011;65745;50.278;18.192;2024-03-02T09:12:12;60.90;;;44.00;;
76795;SDS011;65745;50.278;18.192;2024-03-02T09:14:44;63.00;;;44.90;;
76795;SDS011;65745;50.278;18.192;2024-03-02T09:17:17;77.70;;;49.00;;
76795;SDS011;65745;50.278;18.192;2024-03-02T09:19:49;77.50;;;49.70;;
76795;SDS011;65745;50.278;18.192;2024-03-02T09:22:22;67.60;;;46.30;;
76795;SDS011;65745;50.278;18.192;2024-03-02T09:24:55;66.10;;;44.50;;
76795;SDS011;65745;50.278;18.192;2024-03-02T09:27:27;71.30;;;48.00;;
76795;SDS011;65745;50.278;18.192;2024-03-02T09:29:59;75.90;;;50.50;;
76795;SDS011;65745;50.278;18.192;2024-03-02T09:32:32;72.80;;;48.80;;
76795;SDS011;65745;50.278;18.192;2024-03-02T09:35:05;66.80;;;47.40;;
76795;SDS011;65745;50.278;18.192;2024-03-02T09:37:38;71.10;;;47.90;;
76795;SDS011;65745;50.278;18.192;2024-03-02T09:40:11;74.70;;;53.20;;
76795;SDS011;65745;50.278;18.192;2024-03-02T09:42:45;83.80;;;56.70;;
76795;SDS011;65745;50.278;18.192;2024-03-02T09:45:22;74.80;;;52.60;;
76795;SDS011;65745;50.278;18.192;2024-03-02T09:47:56;67.90;;;49.90;;
76795;SDS011;65745;50.278;18.192;2024-03-02T09:50:28;80.30;;;54.10;;
76795;SDS011;65745;50.278;18.192;2024-03-02T09:53:00;71.30;;;50.20;;
76795;SDS011;65745;50.278;18.192;2024-03-02T09:55:33;64.30;;;48.10;;
76795;SDS011;65745;50.278;18.192;2024-03-02T09:58:06;68.20;;;50.80;;
76795;SDS011;65745;50.278;18.192;2024-03-02T10:00:38;67.00;;;46.60;;
76795;SDS011;65745;50.278;18.192;2024-03-02T10:03:12;64.10;;;46.70;;
76795;SDS011;65745;50.278;18.192;2024-03-02T10:05:45;77.90;;;54.20;;
76795;SDS011;65745;50.278;18.192;2024-03-02T10:08:18;58.40;;;43.90;;
76795;SDS011;65745;50.278;18.192;2024-03-02T10:10:50;66.30;;;45.60;;
76795;SDS011;65745;50.278;18.192;2024-03-02T10:13:22;71.30;;;51.20;;
76795;SDS011;65745;50.278;18.192;2024-03-02T10:15:56;82.60;;;54.50;;
76795;SDS011;65745;50.278;18.192;2024-03-02T10:18:43;70.80;;;48.90;;
76795;SDS011;65745;50.278;18.192;2024-03-02T10:21:16;83.00;;;59.30;;
76795;SDS011;65745;50.278;18.192;2024-03-02T10:23:48;88.30;;;59.70;;
76795;SDS011;65745;50.278;18.192;2024-03-02T10:26:21;77.50;;;52.70;;
76795;SDS011;65745;50.278;18.192;2024-03-02T10:28:53;68.10;;;49.00;;
76795;SDS011;65745;50.278;18.192;2024-03-02T10:31:29;69.30;;;48.90;;
76795;SDS011;65745;50.278;18.192;2024-03-02T10:34:02;70.40;;;50.10;;
76795;SDS011;65745;50.278;18.192;2024-03-02T10:36:35;73.50;;;50.70;;
76795;SDS011;65745;50.278;18.192;2024-03-02T10:39:11;73.30;;;46.90;;
76795;SDS011;65745;50.278;18.192;2024-03-02T10:41:45;66.40;;;47.40;;
76795;SDS011;65745;50.278;18.192;2024-03-02T10:44:20;65.60;;;44.30;;
76795;SDS011;65745;50.278;18.192;2024-03-02T10:46:54;67.40;;;46.40;;
76795;SDS011;65745;50.278;18.192;2024-03-02T10:49:29;68.30;;;49.50;;
76795;SDS011;65745;50.278;18.192;2024-03-02T10:52:03;68.60;;;47.30;;
76795;SDS011;65745;50.278;18.192;2024-03-02T10:54:38;72.70;;;48.50;;
76795;SDS011;65745;50.278;18.192;2024-03-02T10:57:13;68.90;;;48.60;;
76795;SDS011;65745;50.278;18.192;2024-03-02T10:59:49;67.10;;;47.30;;
76795;SDS011;65745;50.278;18.192;2024-03-02T11:02:27;70.60;;;50.50;;
76795;SDS011;65745;50.278;18.192;2024-03-02T11:05:01;66.00;;;46.60;;
76795;SDS011;65745;50.278;18.192;2024-03-02T11:07:39;71.70;;;51.60;;
76795;SDS011;65745;50.278;18.192;2024-03-02T11:10:13;71.60;;;48.60;;
76795;SDS011;65745;50.278;18.192;2024-03-02T11:12:48;62.10;;;45.20;;
76795;SDS011;65745;50.278;18.192;2024-03-02T11:15:30;57.00;;;43.70;;
76795;SDS011;65745;50.278;18.192;2024-03-02T11:18:05;62.30;;;44.20;;
76795;SDS011;65745;50.278;18.192;2024-03-02T11:20:39;62.50;;;44.50;;
76795;SDS011;65745;50.278;18.192;2024-03-02T11:23:12;68.20;;;47.40;;
76795;SDS011;65745;50.278;18.192;2024-03-02T11:25:45;68.30;;;47.00;;
76795;SDS011;65745;50.278;18.192;2024-03-02T11:28:17;66.70;;;47.30;;
76795;SDS011;65745;50.278;18.192;2024-03-02T11:31:07;66.90;;;46.70;;
76795;SDS011;65745;50.278;18.192;2024-03-02T11:33:39;69.60;;;47.40;;
76795;SDS011;65745;50.278;18.192;2024-03-02T11:36:12;68.50;;;47.90;;
76795;SDS011;65745;50.278;18.192;2024-03-02T11:38:46;65.80;;;46.60;;
76795;SDS011;65745;50.278;18.192;2024-03-02T11:41:23;67.10;;;49.30;;
76795;SDS011;65745;50.278;18.192;2024-03-02T11:43:56;68.80;;;48.90;;
76795;SDS011;65745;50.278;18.192;2024-03-02T11:46:29;65.50;;;45.60;;
76795;SDS011;65745;50.278;18.192;2024-03-02T11:49:02;66.30;;;45.70;;
76795;SDS011;65745;50.278;18.192;2024-03-02T11:51:35;60.60;;;44.60;;
76795;SDS011;65745;50.278;18.192;2024-03-02T11:54:09;58.90;;;45.40;;
76795;SDS011;65745;50.278;18.192;2024-03-02T11:56:42;62.20;;;45.00;;
76795;SDS011;65745;50.278;18.192;2024-03-02T11:59:15;63.20;;;45.90;;
76795;SDS011;65745;50.278;18.192;2024-03-02T12:01:48;65.10;;;47.30;;
76795;SDS011;65745;50.278;18.192;2024-03-02T12:04:22;67.60;;;47.90;;
76795;SDS011;65745;50.278;18.192;2024-03-02T12:06:56;62.10;;;45.10;;
76795;SDS011;65745;50.278;18.192;2024-03-02T12:09:30;56.70;;;42.20;;
76795;SDS011;65745;50.278;18.192;2024-03-02T12:12:03;61.70;;;43.00;;
76795;SDS011;65745;50.278;18.192;2024-03-02T12:14:37;53.80;;;39.20;;
76795;SDS011;65745;50.278;18.192;2024-03-02T12:17:10;48.90;;;38.50;;
76795;SDS011;65745;50.278;18.192;2024-03-02T12:19:44;47.90;;;35.00;;
76795;SDS011;65745;50.278;18.192;2024-03-02T12:22:17;43.80;;;30.30;;
76795;SDS011;65745;50.278;18.192;2024-03-02T12:24:49;34.20;;;26.40;;
76795;SDS011;65745;50.278;18.192;2024-03-02T12:27:22;36.30;;;28.20;;
76795;SDS011;65745;50.278;18.192;2024-03-02T12:29:55;31.80;;;23.70;;
76795;SDS011;65745;50.278;18.192;2024-03-02T12:32:27;29.70;;;21.70;;
76795;SDS011;65745;50.278;18.192;2024-03-02T12:34:59;23.50;;;18.40;;
76795;SDS011;65745;50.278;18.192;2024-03-02T12:37:37;25.10;;;19.20;;
76795;SDS011;65745;50.278;18.192;2024-03-02T12:40:14;25.60;;;20.10;;
76795;SDS011;65745;50.278;18.192;2024-03-02T12:42:48;25.60;;;20.20;;
76795;SDS011;65745;50.278;18.192;2024-03-02T12:45:21;29.60;;;21.80;;
76795;SDS011;65745;50.278;18.192;2024-03-02T12:47:55;28.10;;;19.50;;
76795;SDS011;65745;50.278;18.192;2024-03-02T12:50:27;28.10;;;21.10;;
76795;SDS011;65745;50.278;18.192;2024-03-02T12:53:01;23.00;;;18.40;;
76795;SDS011;65745;50.278;18.192;2024-03-02T12:55:37;23.20;;;17.20;;
76795;SDS011;65745;50.278;18.192;2024-03-02T12:58:15;21.30;;;17.00;;
76795;SDS011;65745;50.278;18.192;2024-03-02T13:00:49;15.40;;;13.50;;
76795;SDS011;65745;50.278;18.192;2024-03-02T13:03:36;16.30;;;13.10;;
76795;SDS011;65745;50.278;18.192;2024-03-02T13:06:09;16.50;;;13.40;;
76795;SDS011;65745;50.278;18.192;2024-03-02T13:08:42;14.30;;;11.70;;
76795;SDS011;65745;50.278;18.192;2024-03-02T13:11:15;13.50;;;11.50;;
76795;SDS011;65745;50.278;18.192;2024-03-02T13:13:48;14.90;;;11.60;;
76795;SDS011;65745;50.278;18.192;2024-03-02T13:16:21;15.20;;;11.60;;
76795;SDS011;65745;50.278;18.192;2024-03-02T13:19:01;12.70;;;11.20;;
76795;SDS011;65745;50.278;18.192;2024-03-02T13:21:33;15.20;;;11.90;;
76795;SDS011;65745;50.278;18.192;2024-03-02T13:24:07;14.20;;;11.70;;
76795;SDS011;65745;50.278;18.192;2024-03-02T13:26:39;15.00;;;11.10;;
76795;SDS011;65745;50.278;18.192;2024-03-02T13:29:11;11.40;;;9.80;;
76795;SDS011;65745;50.278;18.192;2024-03-02T13:31:43;10.80;;;8.20;;
76795;SDS011;65745;50.278;18.192;2024-03-02T13:34:18;16.40;;;10.10;;
76795;SDS011;65745;50.278;18.192;2024-03-02T13:36:51;13.70;;;10.30;;
76795;SDS011;65745;50.278;18.192;2024-03-02T13:39:23;14.40;;;10.30;;
76795;SDS011;65745;50.278;18.192;2024-03-02T13:41:56;11.80;;;9.00;;
76795;SDS011;65745;50.278;18.192;2024-03-02T13:44:33;10.60;;;8.90;;
76795;SDS011;65745;50.278;18.192;2024-03-02T13:47:06;10.90;;;8.70;;
76795;SDS011;65745;50.278;18.192;2024-03-02T13:49:38;9.30;;;8.30;;
76795;SDS011;65745;50.278;18.192;2024-03-02T13:52:14;9.00;;;7.70;;
76795;SDS011;65745;50.278;18.192;2024-03-02T13:54:57;9.90;;;7.90;;
76795;SDS011;65745;50.278;18.192;2024-03-02T13:57:30;9.80;;;8.50;;
76795;SDS011;65745;50.278;18.192;2024-03-02T14:00:02;8.80;;;7.00;;
76795;SDS011;65745;50.278;18.192;2024-03-02T14:02:41;11.30;;;10.10;;
76795;SDS011;65745;50.278;18.192;2024-03-02T14:05:18;12.80;;;10.20;;
76795;SDS011;65745;50.278;18.192;2024-03-02T14:07:53;10.20;;;8.20;;
76795;SDS011;65745;50.278;18.192;2024-03-02T14:10:25;8.10;;;6.90;;
76795;SDS011;65745;50.278;18.192;2024-03-02T14:12:58;7.40;;;6.10;;
76795;SDS011;65745;50.278;18.192;2024-03-02T14:15:30;9.60;;;7.50;;
76795;SDS011;65745;50.278;18.192;2024-03-02T14:18:03;11.70;;;8.40;;
76795;SDS011;65745;50.278;18.192;2024-03-02T14:20:35;9.60;;;8.10;;
76795;SDS011;65745;50.278;18.192;2024-03-02T14:23:10;12.70;;;9.50;;
76795;SDS011;65745;50.278;18.192;2024-03-02T14:25:43;12.90;;;10.70;;
76795;SDS011;65745;50.278;18.192;2024-03-02T14:28:15;12.60;;;8.20;;
76795;SDS011;65745;50.278;18.192;2024-03-02T14:31:08;13.60;;;9.40;;
76795;SDS011;65745;50.278;18.192;2024-03-02T14:33:41;13.00;;;9.80;;
76795;SDS011;65745;50.278;18.192;2024-03-02T14:36:13;19.30;;;12.80;;
76795;SDS011;65745;50.278;18.192;2024-03-02T14:38:46;25.40;;;16.30;;
76795;SDS011;65745;50.278;18.192;2024-03-02T14:41:18;29.90;;;22.10;;
76795;SDS011;65745;50.278;18.192;2024-03-02T14:43:52;25.50;;;16.00;;
76795;SDS011;65745;50.278;18.192;2024-03-02T14:46:24;22.20;;;14.20;;